OAL638 LFBD-GCTS
Flight info
| Callsign | OAL638 |
|---|---|
| Flight time | 3h 8m |
| Altitude | 35000 |
| Route | OBLOC DCT URUNA P181 NEA L14 ADINO DCT EVURA UN873 SOTEX UZ223 BEXAL UN866 KONBA |
| Aircraft | B77L/H-VGDW/C |
Departure
| Time | 2026-05-06 18:50 |
|---|---|
| Airport | Bordeaux–Mérignac Airport (LFBD) |
Arrival
| Time | 2026-05-06 21:58 |
|---|---|
| Airport | Tenerife Sur Airport (GCTS) |
| Time | Latitude | Longitude | Altitude | Speed | Heading |
|---|---|---|---|---|---|
| 2026-05-06 18:29 | 44.83230 | -0.70333 | 171 ft | 0 kts | 116° |
| 2026-05-06 18:40 | 44.83236 | -0.70351 | 150 ft | 3 kts | 116° |
| 2026-05-06 18:40 | 44.83245 | -0.70377 | 146 ft | 3 kts | 115° |
| 2026-05-06 18:40 | 44.83250 | -0.70405 | 170 ft | 3 kts | 73° |
| 2026-05-06 18:41 | 44.83242 | -0.70427 | 170 ft | 0 kts | 38° |
| 2026-05-06 18:41 | 44.83255 | -0.70410 | 170 ft | 3 kts | 40° |
| 2026-05-06 18:41 | 44.83269 | -0.70392 | 170 ft | 2 kts | 42° |
| 2026-05-06 18:41 | 44.83269 | -0.70391 | 170 ft | 0 kts | 42° |
| 2026-05-06 18:44 | 44.83270 | -0.70390 | 170 ft | 2 kts | 42° |
| 2026-05-06 18:44 | 44.83286 | -0.70370 | 170 ft | 6 kts | 42° |
| 2026-05-06 18:45 | 44.83316 | -0.70336 | 169 ft | 6 kts | 27° |
| 2026-05-06 18:45 | 44.83356 | -0.70333 | 169 ft | 6 kts | 358° |
| 2026-05-06 18:45 | 44.83407 | -0.70306 | 168 ft | 11 kts | 33° |
| 2026-05-06 18:45 | 44.83468 | -0.70227 | 168 ft | 12 kts | 45° |
| 2026-05-06 18:46 | 44.83527 | -0.70143 | 167 ft | 12 kts | 45° |
| 2026-05-06 18:46 | 44.83586 | -0.70060 | 166 ft | 12 kts | 45° |
| 2026-05-06 18:46 | 44.83657 | -0.70015 | 165 ft | 7 kts | 353° |
| 2026-05-06 18:46 | 44.83678 | -0.70023 | 165 ft | 0 kts | 343° |
| 2026-05-06 18:48 | 44.83721 | -0.70046 | 165 ft | 15 kts | 338° |
| 2026-05-06 18:48 | 44.83796 | -0.70161 | 165 ft | 18 kts | 269° |
| 2026-05-06 18:48 | 44.83745 | -0.70282 | 166 ft | 6 kts | 224° |
| 2026-05-06 18:49 | 44.83732 | -0.70299 | 166 ft | 7 kts | 221° |
| 2026-05-06 18:49 | 44.83705 | -0.70332 | 166 ft | 7 kts | 221° |
| 2026-05-06 18:49 | 44.83565 | -0.70531 | 168 ft | 67 kts | 226° |
| 2026-05-06 18:49 | 44.83016 | -0.71344 | 172 ft | 161 kts | 225° |
| 2026-05-06 18:50 | 44.82062 | -0.72695 | 453 ft | 212 kts | 228° |
| 2026-05-06 18:50 | 44.81048 | -0.74135 | 1778 ft | 197 kts | 229° |
| 2026-05-06 18:50 | 44.80061 | -0.75541 | 2556 ft | 211 kts | 229° |
| 2026-05-06 18:50 | 44.78965 | -0.77112 | 2817 ft | 238 kts | 229° |
| 2026-05-06 18:51 | 44.77757 | -0.78825 | 3348 ft | 251 kts | 226° |
| 2026-05-06 18:51 | 44.76269 | -0.80125 | 3861 ft | 268 kts | 196° |
| 2026-05-06 18:51 | 44.74365 | -0.79997 | 4578 ft | 280 kts | 159° |
| 2026-05-06 18:51 | 44.72831 | -0.78393 | 5362 ft | 282 kts | 125° |
| 2026-05-06 18:52 | 44.71778 | -0.76057 | 6026 ft | 286 kts | 121° |
| 2026-05-06 18:52 | 44.70657 | -0.73695 | 6732 ft | 292 kts | 124° |
| 2026-05-06 18:52 | 44.69467 | -0.71374 | 7616 ft | 292 kts | 126° |
| 2026-05-06 18:52 | 44.68258 | -0.69069 | 8472 ft | 294 kts | 126° |
| 2026-05-06 18:53 | 44.67042 | -0.66760 | 9291 ft | 295 kts | 125° |
| 2026-05-06 18:53 | 44.66117 | -0.64195 | 9847 ft | 299 kts | 99° |
| 2026-05-06 18:53 | 44.66109 | -0.61284 | 10351 ft | 302 kts | 82° |
| 2026-05-06 18:53 | 44.66292 | -0.58233 | 10524 ft | 326 kts | 85° |
| 2026-05-06 18:54 | 44.66409 | -0.54936 | 10735 ft | 351 kts | 86° |
| 2026-05-06 18:54 | 44.66518 | -0.51394 | 10990 ft | 372 kts | 86° |
| 2026-05-06 18:54 | 44.66634 | -0.47708 | 11646 ft | 381 kts | 86° |
| 2026-05-06 18:54 | 44.66760 | -0.43962 | 12411 ft | 387 kts | 86° |
| 2026-05-06 18:55 | 44.66857 | -0.40161 | 13121 ft | 389 kts | 91° |
| 2026-05-06 18:55 | 44.66321 | -0.36434 | 13614 ft | 398 kts | 114° |
| 2026-05-06 18:55 | 44.64706 | -0.33259 | 14241 ft | 403 kts | 138° |
| 2026-05-06 18:55 | 44.62394 | -0.31072 | 15021 ft | 404 kts | 156° |
| 2026-05-06 18:56 | 44.59691 | -0.29971 | 15616 ft | 409 kts | 175° |
| 2026-05-06 18:56 | 44.56857 | -0.30222 | 16245 ft | 411 kts | 197° |
| 2026-05-06 18:56 | 44.54257 | -0.31802 | 17059 ft | 408 kts | 216° |
| 2026-05-06 18:56 | 44.52102 | -0.34361 | 17542 ft | 407 kts | 225° |
| 2026-05-06 18:57 | 44.49992 | -0.37074 | 17975 ft | 417 kts | 224° |
| 2026-05-06 18:57 | 44.47808 | -0.39795 | 18609 ft | 421 kts | 223° |
| 2026-05-06 18:57 | 44.45610 | -0.42505 | 19278 ft | 423 kts | 223° |
| 2026-05-06 18:57 | 44.43419 | -0.45195 | 19886 ft | 426 kts | 223° |
| 2026-05-06 18:58 | 44.41150 | -0.47976 | 20459 ft | 430 kts | 223° |
| 2026-05-06 18:58 | 44.38915 | -0.50710 | 21019 ft | 434 kts | 223° |
| 2026-05-06 18:58 | 44.36623 | -0.53509 | 21597 ft | 438 kts | 223° |
| 2026-05-06 18:58 | 44.34319 | -0.56319 | 22179 ft | 442 kts | 223° |
| 2026-05-06 18:59 | 44.31988 | -0.59157 | 22741 ft | 445 kts | 223° |
| 2026-05-06 18:59 | 44.29643 | -0.62010 | 23300 ft | 449 kts | 223° |
| 2026-05-06 18:59 | 44.27276 | -0.64885 | 23812 ft | 453 kts | 223° |
| 2026-05-06 18:59 | 44.24884 | -0.67788 | 24309 ft | 455 kts | 223° |
| 2026-05-06 19:00 | 44.22495 | -0.70683 | 24831 ft | 457 kts | 223° |
| 2026-05-06 19:00 | 44.20085 | -0.73601 | 25329 ft | 459 kts | 223° |
| 2026-05-06 19:00 | 44.17667 | -0.76525 | 25793 ft | 462 kts | 223° |
| 2026-05-06 19:00 | 44.15232 | -0.79466 | 26282 ft | 464 kts | 223° |
| 2026-05-06 19:01 | 44.12785 | -0.82419 | 26732 ft | 467 kts | 223° |
| 2026-05-06 19:01 | 44.10322 | -0.85388 | 27189 ft | 470 kts | 223° |
| 2026-05-06 19:01 | 44.07870 | -0.88340 | 27641 ft | 472 kts | 223° |
| 2026-05-06 19:01 | 44.05380 | -0.91334 | 28094 ft | 474 kts | 223° |
| 2026-05-06 19:02 | 44.02882 | -0.94335 | 28531 ft | 476 kts | 223° |
| 2026-05-06 19:02 | 44.00371 | -0.97348 | 28940 ft | 478 kts | 223° |
| 2026-05-06 19:02 | 43.97841 | -1.00379 | 29331 ft | 481 kts | 223° |
| 2026-05-06 19:02 | 43.95306 | -1.03414 | 29740 ft | 482 kts | 223° |
| 2026-05-06 19:03 | 43.92763 | -1.06454 | 30245 ft | 481 kts | 223° |
| 2026-05-06 19:03 | 43.90236 | -1.09469 | 30779 ft | 477 kts | 223° |
| 2026-05-06 19:03 | 43.87732 | -1.12455 | 31296 ft | 474 kts | 223° |
| 2026-05-06 19:03 | 43.85233 | -1.15431 | 31767 ft | 471 kts | 223° |
| 2026-05-06 19:04 | 43.82752 | -1.18384 | 32194 ft | 470 kts | 223° |
| 2026-05-06 19:04 | 43.80272 | -1.21332 | 32622 ft | 469 kts | 223° |
| 2026-05-06 19:04 | 43.77805 | -1.24262 | 33041 ft | 467 kts | 223° |
| 2026-05-06 19:04 | 43.75341 | -1.27185 | 33476 ft | 465 kts | 223° |
| 2026-05-06 19:05 | 43.72893 | -1.30085 | 33875 ft | 463 kts | 223° |
| 2026-05-06 19:05 | 43.70445 | -1.32983 | 34210 ft | 462 kts | 223° |
| 2026-05-06 19:05 | 43.68035 | -1.35831 | 34480 ft | 462 kts | 223° |
| 2026-05-06 19:05 | 43.65596 | -1.38712 | 34718 ft | 462 kts | 223° |
| 2026-05-06 19:06 | 43.63152 | -1.41595 | 34922 ft | 463 kts | 223° |
| 2026-05-06 19:06 | 43.58221 | -1.47404 | 35008 ft | 466 kts | 223° |
| 2026-05-06 19:07 | 43.53311 | -1.53171 | 35011 ft | 461 kts | 223° |
| 2026-05-06 19:07 | 43.48447 | -1.58874 | 35018 ft | 458 kts | 223° |
| 2026-05-06 19:08 | 43.43600 | -1.64548 | 35019 ft | 457 kts | 223° |
| 2026-05-06 19:08 | 43.38763 | -1.70195 | 35023 ft | 456 kts | 223° |
| 2026-05-06 19:09 | 43.34355 | -1.76417 | 35028 ft | 453 kts | 233° |
| 2026-05-06 19:09 | 43.30809 | -1.83549 | 35028 ft | 452 kts | 237° |
| 2026-05-06 19:10 | 43.27034 | -1.90483 | 35021 ft | 454 kts | 234° |
| 2026-05-06 19:10 | 43.23225 | -1.97320 | 35028 ft | 455 kts | 234° |
| 2026-05-06 19:11 | 43.19386 | -2.04240 | 35031 ft | 456 kts | 234° |
| 2026-05-06 19:11 | 43.15549 | -2.11164 | 35031 ft | 456 kts | 234° |
| 2026-05-06 19:12 | 43.11710 | -2.18084 | 35037 ft | 456 kts | 234° |
| 2026-05-06 19:12 | 43.07863 | -2.24999 | 35037 ft | 456 kts | 234° |
| 2026-05-06 19:13 | 43.04012 | -2.31906 | 35025 ft | 456 kts | 234° |
| 2026-05-06 19:13 | 43.00160 | -2.38798 | 35033 ft | 456 kts | 234° |
| 2026-05-06 19:14 | 42.96308 | -2.45674 | 35025 ft | 456 kts | 234° |
| 2026-05-06 19:14 | 42.92476 | -2.52498 | 35026 ft | 455 kts | 234° |
| 2026-05-06 19:15 | 42.88623 | -2.59344 | 35019 ft | 455 kts | 234° |
| 2026-05-06 19:15 | 42.84770 | -2.66175 | 35019 ft | 455 kts | 234° |
| 2026-05-06 19:16 | 42.80908 | -2.73007 | 35019 ft | 454 kts | 234° |
| 2026-05-06 19:16 | 42.77045 | -2.79825 | 35026 ft | 454 kts | 234° |
| 2026-05-06 19:17 | 42.73181 | -2.86631 | 35021 ft | 455 kts | 234° |
| 2026-05-06 19:17 | 42.69347 | -2.93477 | 35024 ft | 455 kts | 234° |
| 2026-05-06 19:18 | 42.65536 | -3.00348 | 35018 ft | 455 kts | 234° |
| 2026-05-06 19:18 | 42.61722 | -3.07203 | 35026 ft | 455 kts | 234° |
| 2026-05-06 19:19 | 42.57920 | -3.14006 | 35013 ft | 455 kts | 234° |
| 2026-05-06 19:19 | 42.54064 | -3.20888 | 35005 ft | 455 kts | 234° |
| 2026-05-06 19:20 | 42.50228 | -3.27716 | 35007 ft | 455 kts | 234° |
| 2026-05-06 19:20 | 42.46414 | -3.34490 | 34997 ft | 455 kts | 234° |
| 2026-05-06 19:21 | 42.42570 | -3.41302 | 34983 ft | 455 kts | 234° |
| 2026-05-06 19:21 | 42.38723 | -3.48104 | 34960 ft | 455 kts | 234° |
| 2026-05-06 19:22 | 42.34871 | -3.54900 | 34970 ft | 455 kts | 234° |
| 2026-05-06 19:22 | 42.31044 | -3.61636 | 34967 ft | 455 kts | 234° |
| 2026-05-06 19:23 | 42.27193 | -3.68400 | 34970 ft | 454 kts | 234° |
| 2026-05-06 19:23 | 42.23337 | -3.75156 | 34970 ft | 454 kts | 234° |
| 2026-05-06 19:24 | 42.19475 | -3.81909 | 34962 ft | 454 kts | 233° |
| 2026-05-06 19:24 | 42.15613 | -3.88647 | 34961 ft | 454 kts | 233° |
| 2026-05-06 19:25 | 42.11745 | -3.95381 | 34964 ft | 454 kts | 233° |
| 2026-05-06 19:25 | 42.07878 | -4.02100 | 34962 ft | 454 kts | 233° |
| 2026-05-06 19:26 | 42.03993 | -4.08812 | 34957 ft | 455 kts | 232° |
| 2026-05-06 19:26 | 41.99536 | -4.14858 | 34951 ft | 457 kts | 221° |
| 2026-05-06 19:27 | 41.94703 | -4.20397 | 34948 ft | 457 kts | 222° |
| 2026-05-06 19:27 | 41.89895 | -4.25999 | 34948 ft | 457 kts | 223° |
| 2026-05-06 19:28 | 41.85105 | -4.31596 | 34950 ft | 457 kts | 223° |
| 2026-05-06 19:28 | 41.80306 | -4.37193 | 34950 ft | 457 kts | 223° |
| 2026-05-06 19:29 | 41.75506 | -4.42774 | 34944 ft | 457 kts | 222° |
| 2026-05-06 19:29 | 41.70731 | -4.48315 | 34944 ft | 457 kts | 222° |
| 2026-05-06 19:30 | 41.65927 | -4.53878 | 34947 ft | 456 kts | 222° |
| 2026-05-06 19:30 | 41.61121 | -4.59432 | 34942 ft | 456 kts | 222° |
| 2026-05-06 19:31 | 41.56315 | -4.64975 | 34943 ft | 456 kts | 222° |
| 2026-05-06 19:31 | 41.49103 | -4.73272 | 34939 ft | 455 kts | 222° |
| 2026-05-06 19:32 | 41.44337 | -4.78741 | 34938 ft | 455 kts | 222° |
| 2026-05-06 19:32 | 41.39506 | -4.84274 | 34935 ft | 454 kts | 222° |
| 2026-05-06 19:33 | 41.34741 | -4.89722 | 34937 ft | 454 kts | 222° |
| 2026-05-06 19:33 | 41.29943 | -4.95195 | 34933 ft | 454 kts | 222° |
| 2026-05-06 19:34 | 41.25148 | -5.00646 | 34933 ft | 454 kts | 222° |
| 2026-05-06 19:34 | 41.21159 | -5.05166 | 34929 ft | 453 kts | 222° |
| 2026-05-06 19:35 | 41.16361 | -5.10596 | 34932 ft | 453 kts | 222° |
| 2026-05-06 19:35 | 41.11557 | -5.16023 | 34930 ft | 453 kts | 222° |
| 2026-05-06 19:36 | 41.06758 | -5.21436 | 34931 ft | 453 kts | 222° |
| 2026-05-06 19:36 | 41.01955 | -5.26843 | 34931 ft | 453 kts | 222° |
| 2026-05-06 19:37 | 40.97156 | -5.32234 | 34937 ft | 452 kts | 222° |
| 2026-05-06 19:37 | 40.92358 | -5.37613 | 34939 ft | 452 kts | 222° |
| 2026-05-06 19:38 | 40.87555 | -5.42988 | 34941 ft | 452 kts | 222° |
| 2026-05-06 19:38 | 40.82755 | -5.48348 | 34934 ft | 452 kts | 222° |
| 2026-05-06 19:39 | 40.77952 | -5.53702 | 34933 ft | 452 kts | 222° |
| 2026-05-06 19:39 | 40.73153 | -5.59039 | 34923 ft | 451 kts | 222° |
| 2026-05-06 19:40 | 40.68352 | -5.64370 | 34919 ft | 451 kts | 222° |
| 2026-05-06 19:40 | 40.63558 | -5.69683 | 34910 ft | 450 kts | 222° |
| 2026-05-06 19:41 | 40.58793 | -5.74955 | 34907 ft | 450 kts | 222° |
| 2026-05-06 19:41 | 40.53993 | -5.80254 | 34905 ft | 450 kts | 222° |
| 2026-05-06 19:42 | 40.49196 | -5.85546 | 34915 ft | 450 kts | 222° |
| 2026-05-06 19:42 | 40.44406 | -5.90830 | 34890 ft | 449 kts | 222° |
| 2026-05-06 19:43 | 40.39619 | -5.96101 | 34902 ft | 449 kts | 222° |
| 2026-05-06 19:43 | 40.34828 | -6.01367 | 34879 ft | 449 kts | 222° |
| 2026-05-06 19:44 | 40.30043 | -6.06616 | 34873 ft | 448 kts | 222° |
| 2026-05-06 19:44 | 40.25284 | -6.11826 | 34869 ft | 448 kts | 221° |
| 2026-05-06 19:45 | 40.20504 | -6.17049 | 34873 ft | 448 kts | 221° |
| 2026-05-06 19:45 | 40.15722 | -6.22266 | 34874 ft | 447 kts | 221° |
| 2026-05-06 19:46 | 40.10945 | -6.27467 | 34874 ft | 447 kts | 221° |
| 2026-05-06 19:46 | 40.06172 | -6.32655 | 34863 ft | 446 kts | 221° |
| 2026-05-06 19:47 | 40.01434 | -6.37872 | 34868 ft | 445 kts | 224° |
| 2026-05-06 19:47 | 39.97156 | -6.43685 | 34863 ft | 444 kts | 228° |
| 2026-05-06 19:48 | 39.92895 | -6.49506 | 34861 ft | 444 kts | 227° |
| 2026-05-06 19:48 | 39.88612 | -6.55308 | 34861 ft | 444 kts | 227° |
| 2026-05-06 19:49 | 39.84327 | -6.61100 | 34858 ft | 444 kts | 227° |
| 2026-05-06 19:49 | 39.80038 | -6.66890 | 34857 ft | 444 kts | 227° |
| 2026-05-06 19:50 | 39.75745 | -6.72675 | 34856 ft | 445 kts | 227° |
| 2026-05-06 19:50 | 39.71450 | -6.78454 | 34859 ft | 445 kts | 227° |
| 2026-05-06 19:51 | 39.67145 | -6.84234 | 34857 ft | 445 kts | 227° |
| 2026-05-06 19:51 | 39.62848 | -6.89993 | 34859 ft | 445 kts | 227° |
| 2026-05-06 19:52 | 39.58536 | -6.95761 | 34862 ft | 445 kts | 227° |
| 2026-05-06 19:52 | 39.54221 | -7.01520 | 34864 ft | 445 kts | 227° |
| 2026-05-06 19:53 | 39.49907 | -7.07270 | 34867 ft | 445 kts | 227° |
| 2026-05-06 19:53 | 39.45595 | -7.13003 | 34865 ft | 444 kts | 227° |
| 2026-05-06 19:54 | 39.41282 | -7.18729 | 34869 ft | 444 kts | 226° |
| 2026-05-06 19:54 | 39.36968 | -7.24445 | 34871 ft | 444 kts | 226° |
| 2026-05-06 19:55 | 39.32652 | -7.30153 | 34872 ft | 444 kts | 226° |
| 2026-05-06 19:55 | 39.28352 | -7.35828 | 34875 ft | 444 kts | 226° |
| 2026-05-06 19:56 | 39.24027 | -7.41528 | 34875 ft | 444 kts | 226° |
| 2026-05-06 19:56 | 39.19698 | -7.47220 | 34883 ft | 445 kts | 226° |
| 2026-05-06 19:57 | 39.15364 | -7.52908 | 34885 ft | 445 kts | 226° |
| 2026-05-06 19:57 | 39.11022 | -7.58598 | 34887 ft | 445 kts | 226° |
| 2026-05-06 19:58 | 39.06679 | -7.64277 | 34888 ft | 446 kts | 226° |
| 2026-05-06 19:58 | 39.02322 | -7.69964 | 34899 ft | 446 kts | 226° |
| 2026-05-06 19:59 | 38.97961 | -7.75645 | 34898 ft | 446 kts | 226° |
| 2026-05-06 19:59 | 38.93595 | -7.81323 | 34903 ft | 447 kts | 226° |
| 2026-05-06 20:00 | 38.89225 | -7.86996 | 34900 ft | 447 kts | 226° |
| 2026-05-06 20:00 | 38.84850 | -7.92663 | 34908 ft | 447 kts | 226° |
| 2026-05-06 20:01 | 38.80467 | -7.98332 | 34906 ft | 448 kts | 226° |
| 2026-05-06 20:01 | 38.76104 | -8.03963 | 34907 ft | 448 kts | 226° |
| 2026-05-06 20:02 | 38.71685 | -8.09657 | 34917 ft | 448 kts | 226° |
| 2026-05-06 20:02 | 38.67315 | -8.15275 | 34924 ft | 448 kts | 226° |
| 2026-05-06 20:03 | 38.62908 | -8.20933 | 34921 ft | 449 kts | 226° |
| 2026-05-06 20:03 | 38.58495 | -8.26587 | 34923 ft | 449 kts | 226° |
| 2026-05-06 20:04 | 38.54071 | -8.32245 | 34926 ft | 450 kts | 226° |
| 2026-05-06 20:04 | 38.49665 | -8.37870 | 34928 ft | 450 kts | 226° |
| 2026-05-06 20:05 | 38.45237 | -8.43512 | 34929 ft | 450 kts | 226° |
| 2026-05-06 20:05 | 38.40805 | -8.49149 | 34934 ft | 450 kts | 226° |
| 2026-05-06 20:06 | 38.36387 | -8.54758 | 34936 ft | 451 kts | 226° |
| 2026-05-06 20:06 | 38.31937 | -8.60396 | 34932 ft | 451 kts | 226° |
| 2026-05-06 20:07 | 38.27491 | -8.66020 | 34936 ft | 451 kts | 226° |
| 2026-05-06 20:07 | 38.23034 | -8.71647 | 34939 ft | 451 kts | 226° |
| 2026-05-06 20:08 | 38.18569 | -8.77275 | 34942 ft | 451 kts | 226° |
| 2026-05-06 20:08 | 38.14105 | -8.82891 | 34943 ft | 452 kts | 226° |
| 2026-05-06 20:09 | 38.09637 | -8.88501 | 34945 ft | 452 kts | 226° |
| 2026-05-06 20:09 | 38.05165 | -8.94106 | 34949 ft | 452 kts | 227° |
| 2026-05-06 20:10 | 38.00689 | -8.99706 | 34950 ft | 452 kts | 227° |
| 2026-05-06 20:10 | 37.96208 | -9.05303 | 34954 ft | 452 kts | 227° |
| 2026-05-06 20:11 | 37.91716 | -9.10902 | 34956 ft | 453 kts | 227° |
| 2026-05-06 20:11 | 37.87221 | -9.16496 | 34958 ft | 453 kts | 227° |
| 2026-05-06 20:12 | 37.82718 | -9.22089 | 34960 ft | 454 kts | 227° |
| 2026-05-06 20:12 | 37.78234 | -9.27648 | 34967 ft | 454 kts | 227° |
| 2026-05-06 20:13 | 37.73714 | -9.33242 | 34968 ft | 455 kts | 227° |
| 2026-05-06 20:13 | 37.69192 | -9.38829 | 34970 ft | 455 kts | 227° |
| 2026-05-06 20:14 | 37.64661 | -9.44416 | 34972 ft | 455 kts | 227° |
| 2026-05-06 20:14 | 37.60116 | -9.50010 | 34973 ft | 456 kts | 227° |
| 2026-05-06 20:15 | 37.55580 | -9.55585 | 34976 ft | 456 kts | 227° |
| 2026-05-06 20:15 | 37.51034 | -9.61160 | 34980 ft | 456 kts | 227° |
| 2026-05-06 20:16 | 37.46480 | -9.66736 | 34982 ft | 457 kts | 227° |
| 2026-05-06 20:16 | 37.41924 | -9.72303 | 34980 ft | 457 kts | 227° |
| 2026-05-06 20:17 | 37.37353 | -9.77880 | 34984 ft | 457 kts | 227° |
| 2026-05-06 20:17 | 37.32787 | -9.83440 | 34985 ft | 457 kts | 227° |
| 2026-05-06 20:18 | 37.28221 | -9.88991 | 34987 ft | 457 kts | 227° |
| 2026-05-06 20:18 | 37.23654 | -9.94533 | 34989 ft | 457 kts | 227° |
| 2026-05-06 20:19 | 37.19111 | -10.00035 | 34991 ft | 457 kts | 227° |
| 2026-05-06 20:19 | 37.14534 | -10.05570 | 34994 ft | 457 kts | 227° |
| 2026-05-06 20:20 | 37.09960 | -10.11091 | 34994 ft | 457 kts | 227° |
| 2026-05-06 20:20 | 37.06148 | -10.15685 | 34992 ft | 457 kts | 227° |
| 2026-05-06 20:21 | 37.01560 | -10.21204 | 34994 ft | 457 kts | 227° |
| 2026-05-06 20:21 | 36.96970 | -10.26717 | 35004 ft | 457 kts | 227° |
| 2026-05-06 20:22 | 36.92377 | -10.32224 | 35008 ft | 457 kts | 227° |
| 2026-05-06 20:22 | 36.87778 | -10.37727 | 35003 ft | 458 kts | 227° |
| 2026-05-06 20:23 | 36.83179 | -10.43222 | 35006 ft | 458 kts | 227° |
| 2026-05-06 20:23 | 36.78573 | -10.48715 | 35007 ft | 458 kts | 227° |
| 2026-05-06 20:24 | 36.73958 | -10.54209 | 35009 ft | 458 kts | 227° |
| 2026-05-06 20:24 | 36.69339 | -10.59698 | 35011 ft | 459 kts | 227° |
| 2026-05-06 20:25 | 36.64716 | -10.65183 | 35010 ft | 459 kts | 227° |
| 2026-05-06 20:25 | 36.60083 | -10.70670 | 35013 ft | 460 kts | 227° |
| 2026-05-06 20:26 | 36.55478 | -10.76115 | 35014 ft | 460 kts | 227° |
| 2026-05-06 20:26 | 36.50825 | -10.81607 | 35013 ft | 461 kts | 227° |
| 2026-05-06 20:27 | 36.46168 | -10.87092 | 35013 ft | 461 kts | 228° |
| 2026-05-06 20:27 | 36.41504 | -10.92577 | 35022 ft | 462 kts | 228° |
| 2026-05-06 20:28 | 36.36834 | -10.98061 | 35019 ft | 462 kts | 228° |
| 2026-05-06 20:28 | 36.32149 | -11.03551 | 35024 ft | 463 kts | 228° |
| 2026-05-06 20:29 | 36.27491 | -11.09001 | 35024 ft | 464 kts | 228° |
| 2026-05-06 20:29 | 36.22791 | -11.14491 | 35027 ft | 464 kts | 228° |
| 2026-05-06 20:30 | 36.15725 | -11.22726 | 35024 ft | 466 kts | 228° |
| 2026-05-06 20:31 | 36.11004 | -11.28217 | 35024 ft | 466 kts | 228° |
| 2026-05-06 20:31 | 36.06268 | -11.33717 | 35028 ft | 467 kts | 228° |
| 2026-05-06 20:32 | 36.01534 | -11.39205 | 35030 ft | 468 kts | 228° |
| 2026-05-06 20:32 | 35.96756 | -11.44684 | 35021 ft | 470 kts | 226° |
| 2026-05-06 20:33 | 35.91454 | -11.49500 | 35035 ft | 475 kts | 220° |
| 2026-05-06 20:33 | 35.86040 | -11.54183 | 35038 ft | 475 kts | 220° |
| 2026-05-06 20:34 | 35.80638 | -11.58900 | 35029 ft | 476 kts | 221° |
| 2026-05-06 20:34 | 35.75234 | -11.63633 | 35034 ft | 477 kts | 221° |
| 2026-05-06 20:35 | 35.69856 | -11.68338 | 35034 ft | 477 kts | 221° |
| 2026-05-06 20:35 | 35.64434 | -11.73072 | 35036 ft | 478 kts | 221° |
| 2026-05-06 20:36 | 35.59002 | -11.77806 | 35036 ft | 479 kts | 221° |
| 2026-05-06 20:36 | 35.53566 | -11.82535 | 35038 ft | 479 kts | 221° |
| 2026-05-06 20:37 | 35.48119 | -11.87265 | 35037 ft | 480 kts | 221° |
| 2026-05-06 20:37 | 35.42659 | -11.91998 | 35042 ft | 481 kts | 221° |
| 2026-05-06 20:38 | 35.37186 | -11.96735 | 35042 ft | 482 kts | 221° |
| 2026-05-06 20:38 | 35.31703 | -12.01473 | 35040 ft | 482 kts | 221° |
| 2026-05-06 20:39 | 35.26216 | -12.06206 | 35044 ft | 483 kts | 221° |
| 2026-05-06 20:39 | 35.20707 | -12.10950 | 35046 ft | 484 kts | 221° |
| 2026-05-06 20:40 | 35.15190 | -12.15692 | 35045 ft | 485 kts | 221° |
| 2026-05-06 20:40 | 35.09704 | -12.20401 | 35048 ft | 486 kts | 221° |
| 2026-05-06 20:41 | 35.04165 | -12.25146 | 35049 ft | 486 kts | 221° |
| 2026-05-06 20:41 | 34.98613 | -12.29895 | 35048 ft | 487 kts | 221° |
| 2026-05-06 20:42 | 34.93055 | -12.34640 | 35051 ft | 488 kts | 221° |
| 2026-05-06 20:42 | 34.87497 | -12.39378 | 35047 ft | 488 kts | 221° |
| 2026-05-06 20:43 | 34.81918 | -12.44126 | 35049 ft | 489 kts | 221° |
| 2026-05-06 20:43 | 34.76330 | -12.48873 | 35051 ft | 490 kts | 221° |
| 2026-05-06 20:44 | 34.70773 | -12.53587 | 35062 ft | 490 kts | 221° |
| 2026-05-06 20:44 | 34.65162 | -12.58338 | 35064 ft | 491 kts | 221° |
| 2026-05-06 20:45 | 34.59553 | -12.63080 | 35055 ft | 492 kts | 221° |
| 2026-05-06 20:45 | 34.53929 | -12.67825 | 35053 ft | 492 kts | 221° |
| 2026-05-06 20:46 | 34.48291 | -12.72576 | 35056 ft | 493 kts | 221° |
| 2026-05-06 20:46 | 34.42661 | -12.77311 | 35054 ft | 493 kts | 221° |
| 2026-05-06 20:47 | 34.37018 | -12.82050 | 35055 ft | 493 kts | 221° |
| 2026-05-06 20:47 | 34.31379 | -12.86779 | 35056 ft | 494 kts | 221° |
| 2026-05-06 20:48 | 34.25725 | -12.91512 | 35057 ft | 494 kts | 221° |
| 2026-05-06 20:48 | 34.20115 | -12.96229 | 35059 ft | 494 kts | 222° |
| 2026-05-06 20:49 | 34.14475 | -13.00985 | 35062 ft | 495 kts | 222° |
| 2026-05-06 20:49 | 34.08828 | -13.05739 | 35055 ft | 495 kts | 221° |
| 2026-05-06 20:50 | 34.03178 | -13.10483 | 35056 ft | 495 kts | 221° |
| 2026-05-06 20:50 | 33.97519 | -13.15225 | 35064 ft | 495 kts | 221° |
| 2026-05-06 20:51 | 33.91853 | -13.19966 | 35061 ft | 495 kts | 221° |
| 2026-05-06 20:51 | 33.86186 | -13.24700 | 35079 ft | 496 kts | 221° |
| 2026-05-06 20:52 | 33.80552 | -13.29398 | 35077 ft | 496 kts | 221° |
| 2026-05-06 20:52 | 33.74873 | -13.34127 | 35068 ft | 497 kts | 221° |
| 2026-05-06 20:53 | 33.69191 | -13.38850 | 35069 ft | 497 kts | 221° |
| 2026-05-06 20:53 | 33.63505 | -13.43568 | 35071 ft | 497 kts | 221° |
| 2026-05-06 20:54 | 33.57814 | -13.48284 | 35076 ft | 497 kts | 221° |
| 2026-05-06 20:54 | 33.52120 | -13.52994 | 35074 ft | 497 kts | 221° |
| 2026-05-06 20:55 | 33.46429 | -13.57694 | 35074 ft | 497 kts | 221° |
| 2026-05-06 20:55 | 33.40733 | -13.62390 | 35074 ft | 497 kts | 221° |
| 2026-05-06 20:56 | 33.35032 | -13.67083 | 35080 ft | 497 kts | 221° |
| 2026-05-06 20:56 | 33.29324 | -13.71775 | 35079 ft | 498 kts | 221° |
| 2026-05-06 20:57 | 33.23612 | -13.76462 | 35074 ft | 498 kts | 221° |
| 2026-05-06 20:57 | 33.17898 | -13.81146 | 35080 ft | 498 kts | 221° |
| 2026-05-06 20:58 | 33.12177 | -13.85819 | 35085 ft | 499 kts | 221° |
| 2026-05-06 20:58 | 33.06474 | -13.90447 | 35081 ft | 499 kts | 221° |
| 2026-05-06 20:59 | 33.00725 | -13.95102 | 35083 ft | 499 kts | 221° |
| 2026-05-06 20:59 | 32.94980 | -13.99751 | 35081 ft | 500 kts | 221° |
| 2026-05-06 21:00 | 32.89222 | -14.04405 | 35079 ft | 500 kts | 221° |
| 2026-05-06 21:00 | 32.83454 | -14.09061 | 35090 ft | 501 kts | 220° |
| 2026-05-06 21:01 | 32.77681 | -14.13712 | 35090 ft | 501 kts | 221° |
| 2026-05-06 21:01 | 32.71906 | -14.18358 | 35087 ft | 502 kts | 220° |
| 2026-05-06 21:02 | 32.66123 | -14.23003 | 35082 ft | 502 kts | 220° |
| 2026-05-06 21:02 | 32.60330 | -14.27648 | 35088 ft | 502 kts | 220° |
| 2026-05-06 21:03 | 32.54577 | -14.32254 | 35085 ft | 502 kts | 220° |
| 2026-05-06 21:03 | 32.48781 | -14.36887 | 35085 ft | 502 kts | 220° |
| 2026-05-06 21:04 | 32.42980 | -14.41517 | 35088 ft | 503 kts | 220° |
| 2026-05-06 21:04 | 32.37176 | -14.46143 | 35096 ft | 503 kts | 220° |
| 2026-05-06 21:05 | 32.31363 | -14.50768 | 35096 ft | 503 kts | 220° |
| 2026-05-06 21:05 | 32.25590 | -14.55353 | 35079 ft | 504 kts | 220° |
| 2026-05-06 21:06 | 32.19777 | -14.59963 | 35089 ft | 504 kts | 220° |
| 2026-05-06 21:06 | 32.13952 | -14.64576 | 35087 ft | 504 kts | 220° |
| 2026-05-06 21:07 | 32.08132 | -14.69177 | 35089 ft | 504 kts | 220° |
| 2026-05-06 21:07 | 32.02308 | -14.73776 | 35086 ft | 504 kts | 220° |
| 2026-05-06 21:08 | 31.96482 | -14.78368 | 35087 ft | 504 kts | 220° |
| 2026-05-06 21:08 | 31.90660 | -14.82949 | 35092 ft | 504 kts | 220° |
| 2026-05-06 21:09 | 31.84831 | -14.87529 | 35091 ft | 504 kts | 220° |
| 2026-05-06 21:09 | 31.79003 | -14.92102 | 35094 ft | 504 kts | 220° |
| 2026-05-06 21:10 | 31.74152 | -14.95903 | 35093 ft | 504 kts | 220° |
| 2026-05-06 21:10 | 31.68310 | -15.00472 | 35092 ft | 504 kts | 219° |
| 2026-05-06 21:11 | 31.62464 | -15.05039 | 35093 ft | 504 kts | 219° |
| 2026-05-06 21:11 | 31.56620 | -15.09597 | 35093 ft | 504 kts | 219° |
| 2026-05-06 21:12 | 31.50782 | -15.14144 | 35090 ft | 504 kts | 219° |
| 2026-05-06 21:12 | 31.44941 | -15.18686 | 35107 ft | 504 kts | 219° |
| 2026-05-06 21:13 | 31.39134 | -15.23196 | 35104 ft | 504 kts | 219° |
| 2026-05-06 21:13 | 31.33286 | -15.27731 | 35082 ft | 504 kts | 219° |
| 2026-05-06 21:14 | 31.27376 | -15.32176 | 35101 ft | 506 kts | 216° |
| 2026-05-06 21:14 | 31.21175 | -15.36120 | 35099 ft | 509 kts | 213° |
| 2026-05-06 21:15 | 31.14908 | -15.39951 | 35099 ft | 508 kts | 213° |
| 2026-05-06 21:15 | 31.08678 | -15.43841 | 35097 ft | 507 kts | 214° |
| 2026-05-06 21:16 | 31.02474 | -15.47776 | 35100 ft | 507 kts | 214° |
| 2026-05-06 21:16 | 30.96284 | -15.51714 | 35099 ft | 507 kts | 214° |
| 2026-05-06 21:17 | 30.90092 | -15.55642 | 35096 ft | 507 kts | 214° |
| 2026-05-06 21:17 | 30.83895 | -15.59564 | 35097 ft | 507 kts | 214° |
| 2026-05-06 21:18 | 30.77694 | -15.63480 | 35093 ft | 507 kts | 214° |
| 2026-05-06 21:18 | 30.71537 | -15.67363 | 35096 ft | 507 kts | 214° |
| 2026-05-06 21:19 | 30.65343 | -15.71264 | 35094 ft | 507 kts | 214° |
| 2026-05-06 21:19 | 30.59143 | -15.75163 | 35098 ft | 507 kts | 214° |
| 2026-05-06 21:20 | 30.52941 | -15.79058 | 35093 ft | 507 kts | 214° |
| 2026-05-06 21:20 | 30.46743 | -15.82944 | 35094 ft | 506 kts | 214° |
| 2026-05-06 21:21 | 30.40545 | -15.86825 | 35091 ft | 506 kts | 214° |
| 2026-05-06 21:21 | 30.34343 | -15.90702 | 35095 ft | 506 kts | 214° |
| 2026-05-06 21:22 | 30.28142 | -15.94574 | 35093 ft | 506 kts | 213° |
| 2026-05-06 21:22 | 30.21975 | -15.98419 | 35093 ft | 506 kts | 213° |
| 2026-05-06 21:23 | 30.15782 | -16.02274 | 35090 ft | 506 kts | 213° |
| 2026-05-06 21:23 | 30.09580 | -16.06130 | 35088 ft | 505 kts | 213° |
| 2026-05-06 21:24 | 30.03383 | -16.09976 | 35090 ft | 505 kts | 213° |
| 2026-05-06 21:24 | 29.97189 | -16.13816 | 35086 ft | 505 kts | 213° |
| 2026-05-06 21:25 | 29.90997 | -16.17649 | 35088 ft | 505 kts | 213° |
| 2026-05-06 21:25 | 29.84798 | -16.21481 | 35086 ft | 505 kts | 213° |
| 2026-05-06 21:26 | 29.78651 | -16.25275 | 35087 ft | 505 kts | 213° |
| 2026-05-06 21:26 | 29.72453 | -16.29095 | 35083 ft | 505 kts | 213° |
| 2026-05-06 21:27 | 29.66268 | -16.32903 | 35087 ft | 505 kts | 213° |
| 2026-05-06 21:27 | 29.60074 | -16.36712 | 35083 ft | 504 kts | 213° |
| 2026-05-06 21:28 | 29.54424 | -16.41254 | 35081 ft | 493 kts | 226° |
| 2026-05-06 21:28 | 29.49245 | -16.46405 | 35097 ft | 493 kts | 226° |
| 2026-05-06 21:29 | 29.44021 | -16.51522 | 35074 ft | 494 kts | 225° |
| 2026-05-06 21:29 | 29.38715 | -16.56563 | 35069 ft | 496 kts | 225° |
| 2026-05-06 21:30 | 29.33396 | -16.61555 | 34518 ft | 506 kts | 225° |
| 2026-05-06 21:30 | 29.30629 | -16.64150 | 33688 ft | 503 kts | 225° |
| 2026-05-06 21:30 | 29.27937 | -16.66666 | 32823 ft | 498 kts | 225° |
| 2026-05-06 21:30 | 29.25254 | -16.69176 | 32200 ft | 495 kts | 224° |
| 2026-05-06 21:31 | 29.22599 | -16.71659 | 31661 ft | 491 kts | 224° |
| 2026-05-06 21:31 | 29.19997 | -16.74093 | 31129 ft | 487 kts | 224° |
| 2026-05-06 21:31 | 29.17385 | -16.76537 | 30609 ft | 484 kts | 224° |
| 2026-05-06 21:31 | 29.14788 | -16.78965 | 30073 ft | 480 kts | 224° |
| 2026-05-06 21:32 | 29.12206 | -16.81378 | 29481 ft | 477 kts | 224° |
| 2026-05-06 21:32 | 29.07112 | -16.86133 | 28386 ft | 468 kts | 223° |
| 2026-05-06 21:32 | 29.04598 | -16.88478 | 27856 ft | 464 kts | 223° |
| 2026-05-06 21:33 | 29.02100 | -16.90806 | 27334 ft | 461 kts | 223° |
| 2026-05-06 21:33 | 28.99626 | -16.93111 | 26838 ft | 457 kts | 223° |
| 2026-05-06 21:33 | 28.97168 | -16.95399 | 26318 ft | 454 kts | 223° |
| 2026-05-06 21:33 | 28.94723 | -16.97674 | 25823 ft | 451 kts | 223° |
| 2026-05-06 21:34 | 28.92293 | -16.99934 | 25314 ft | 449 kts | 223° |
| 2026-05-06 21:34 | 28.89880 | -17.02176 | 24827 ft | 447 kts | 223° |
| 2026-05-06 21:34 | 28.87470 | -17.04414 | 24325 ft | 445 kts | 222° |
| 2026-05-06 21:34 | 28.85074 | -17.06638 | 23832 ft | 444 kts | 222° |
| 2026-05-06 21:35 | 28.82682 | -17.08857 | 23266 ft | 442 kts | 222° |
| 2026-05-06 21:35 | 28.80303 | -17.11061 | 22760 ft | 439 kts | 222° |
| 2026-05-06 21:35 | 28.77937 | -17.13252 | 22236 ft | 436 kts | 222° |
| 2026-05-06 21:35 | 28.75617 | -17.15399 | 21762 ft | 433 kts | 222° |
| 2026-05-06 21:36 | 28.73292 | -17.17549 | 21289 ft | 430 kts | 222° |
| 2026-05-06 21:36 | 28.70979 | -17.19689 | 20809 ft | 426 kts | 222° |
| 2026-05-06 21:36 | 28.68680 | -17.21812 | 20338 ft | 423 kts | 222° |
| 2026-05-06 21:36 | 28.66405 | -17.23908 | 19873 ft | 418 kts | 221° |
| 2026-05-06 21:37 | 28.63916 | -17.25583 | 19238 ft | 419 kts | 201° |
| 2026-05-06 21:37 | 28.61034 | -17.26068 | 18742 ft | 423 kts | 177° |
| 2026-05-06 21:37 | 28.58159 | -17.25444 | 18381 ft | 419 kts | 163° |
| 2026-05-06 21:37 | 28.55479 | -17.24193 | 17792 ft | 419 kts | 152° |
| 2026-05-06 21:38 | 28.52953 | -17.22501 | 17010 ft | 423 kts | 148° |
| 2026-05-06 21:38 | 28.50460 | -17.20708 | 16217 ft | 427 kts | 148° |
| 2026-05-06 21:38 | 28.47941 | -17.18877 | 15404 ft | 431 kts | 148° |
| 2026-05-06 21:38 | 28.45400 | -17.17046 | 14607 ft | 434 kts | 148° |
| 2026-05-06 21:39 | 28.42828 | -17.15215 | 13827 ft | 437 kts | 149° |
| 2026-05-06 21:39 | 28.40245 | -17.13397 | 13024 ft | 437 kts | 149° |
| 2026-05-06 21:39 | 28.37683 | -17.11607 | 12689 ft | 425 kts | 149° |
| 2026-05-06 21:39 | 28.35214 | -17.09887 | 12564 ft | 409 kts | 149° |
| 2026-05-06 21:40 | 28.32814 | -17.08217 | 12118 ft | 402 kts | 149° |
| 2026-05-06 21:40 | 28.30425 | -17.06558 | 11550 ft | 400 kts | 149° |
| 2026-05-06 21:40 | 28.28059 | -17.04915 | 11000 ft | 397 kts | 149° |
| 2026-05-06 21:40 | 28.25739 | -17.03304 | 10461 ft | 395 kts | 149° |
| 2026-05-06 21:41 | 28.23474 | -17.01731 | 10209 ft | 364 kts | 149° |
| 2026-05-06 21:41 | 28.21415 | -17.00301 | 10005 ft | 332 kts | 149° |
| 2026-05-06 21:41 | 28.19519 | -16.98986 | 9754 ft | 306 kts | 149° |
| 2026-05-06 21:41 | 28.17779 | -16.97780 | 9487 ft | 283 kts | 149° |
| 2026-05-06 21:42 | 28.16133 | -16.96708 | 9462 ft | 268 kts | 156° |
| 2026-05-06 21:42 | 28.14384 | -16.95904 | 9364 ft | 274 kts | 160° |
| 2026-05-06 21:42 | 28.12578 | -16.95158 | 8985 ft | 277 kts | 160° |
| 2026-05-06 21:42 | 28.10784 | -16.94400 | 8629 ft | 273 kts | 159° |
| 2026-05-06 21:43 | 28.09041 | -16.93641 | 8341 ft | 263 kts | 159° |
| 2026-05-06 21:43 | 28.07363 | -16.92900 | 8014 ft | 256 kts | 159° |
| 2026-05-06 21:43 | 28.05721 | -16.92172 | 7709 ft | 252 kts | 159° |
| 2026-05-06 21:43 | 28.04092 | -16.91457 | 7424 ft | 249 kts | 161° |
| 2026-05-06 21:44 | 28.02385 | -16.91264 | 7106 ft | 251 kts | 193° |
| 2026-05-06 21:44 | 28.00885 | -16.92187 | 6999 ft | 248 kts | 227° |
| 2026-05-06 21:44 | 27.99919 | -16.93790 | 6883 ft | 247 kts | 246° |
| 2026-05-06 21:44 | 27.99224 | -16.95578 | 6754 ft | 250 kts | 249° |
| 2026-05-06 21:45 | 27.98557 | -16.97400 | 6627 ft | 250 kts | 249° |
| 2026-05-06 21:45 | 27.97901 | -16.99197 | 6505 ft | 245 kts | 249° |
| 2026-05-06 21:45 | 27.97251 | -17.00974 | 6372 ft | 243 kts | 249° |
| 2026-05-06 21:45 | 27.96598 | -17.02734 | 6264 ft | 244 kts | 249° |
| 2026-05-06 21:46 | 27.95936 | -17.04504 | 6145 ft | 244 kts | 249° |
| 2026-05-06 21:46 | 27.95272 | -17.06273 | 6030 ft | 245 kts | 249° |
| 2026-05-06 21:46 | 27.94606 | -17.08045 | 5912 ft | 245 kts | 249° |
| 2026-05-06 21:46 | 27.93937 | -17.09823 | 5795 ft | 245 kts | 248° |
| 2026-05-06 21:47 | 27.93268 | -17.11598 | 5667 ft | 245 kts | 248° |
| 2026-05-06 21:47 | 27.92598 | -17.13331 | 5561 ft | 242 kts | 244° |
| 2026-05-06 21:47 | 27.91489 | -17.14716 | 5402 ft | 240 kts | 210° |
| 2026-05-06 21:47 | 27.89878 | -17.15135 | 5353 ft | 244 kts | 176° |
| 2026-05-06 21:48 | 27.88218 | -17.14694 | 5258 ft | 248 kts | 159° |
| 2026-05-06 21:48 | 27.86617 | -17.13940 | 5136 ft | 248 kts | 152° |
| 2026-05-06 21:48 | 27.85334 | -17.12706 | 4986 ft | 243 kts | 120° |
| 2026-05-06 21:48 | 27.84864 | -17.10918 | 4892 ft | 238 kts | 89° |
| 2026-05-06 21:49 | 27.85097 | -17.09091 | 4791 ft | 235 kts | 70° |
| 2026-05-06 21:49 | 27.85698 | -17.07378 | 4676 ft | 235 kts | 65° |
| 2026-05-06 21:49 | 27.86355 | -17.05682 | 4574 ft | 236 kts | 65° |
| 2026-05-06 21:49 | 27.87015 | -17.03977 | 4448 ft | 237 kts | 64° |
| 2026-05-06 21:50 | 27.87675 | -17.02277 | 4329 ft | 236 kts | 65° |
| 2026-05-06 21:50 | 27.88326 | -17.00578 | 4232 ft | 235 kts | 65° |
| 2026-05-06 21:50 | 27.88963 | -16.98895 | 4095 ft | 229 kts | 65° |
| 2026-05-06 21:50 | 27.89567 | -16.97293 | 3978 ft | 220 kts | 65° |
| 2026-05-06 21:51 | 27.90163 | -16.95710 | 3891 ft | 217 kts | 65° |
| 2026-05-06 21:51 | 27.90751 | -16.94149 | 3796 ft | 215 kts | 65° |
| 2026-05-06 21:51 | 27.91337 | -16.92592 | 3695 ft | 216 kts | 65° |
| 2026-05-06 21:51 | 27.91922 | -16.91034 | 3583 ft | 216 kts | 65° |
| 2026-05-06 21:52 | 27.92512 | -16.89463 | 3511 ft | 217 kts | 65° |
| 2026-05-06 21:52 | 27.93104 | -16.87887 | 3401 ft | 218 kts | 65° |
| 2026-05-06 21:52 | 27.93698 | -16.86310 | 3281 ft | 215 kts | 65° |
| 2026-05-06 21:52 | 27.94310 | -16.84801 | 3173 ft | 208 kts | 63° |
| 2026-05-06 21:53 | 27.94926 | -16.83311 | 3097 ft | 211 kts | 63° |
| 2026-05-06 21:53 | 27.95550 | -16.81797 | 2998 ft | 213 kts | 64° |
| 2026-05-06 21:53 | 27.96174 | -16.80276 | 2892 ft | 214 kts | 64° |
| 2026-05-06 21:53 | 27.96802 | -16.78750 | 2792 ft | 213 kts | 63° |
| 2026-05-06 21:54 | 27.97445 | -16.77259 | 2683 ft | 209 kts | 64° |
| 2026-05-06 21:54 | 27.98005 | -16.75775 | 2604 ft | 199 kts | 66° |
| 2026-05-06 21:54 | 27.98495 | -16.74384 | 2507 ft | 186 kts | 67° |
| 2026-05-06 21:54 | 27.98960 | -16.73046 | 2406 ft | 176 kts | 66° |
| 2026-05-06 21:55 | 27.99389 | -16.71806 | 2329 ft | 164 kts | 66° |
| 2026-05-06 21:55 | 27.99786 | -16.70663 | 2238 ft | 149 kts | 66° |
| 2026-05-06 21:55 | 28.00155 | -16.69603 | 2160 ft | 145 kts | 65° |
| 2026-05-06 21:55 | 28.00531 | -16.68528 | 2006 ft | 150 kts | 66° |
| 2026-05-06 21:56 | 28.00912 | -16.67423 | 1833 ft | 151 kts | 66° |
| 2026-05-06 21:56 | 28.01297 | -16.66314 | 1631 ft | 152 kts | 66° |
| 2026-05-06 21:56 | 28.01681 | -16.65210 | 1416 ft | 148 kts | 68° |
| 2026-05-06 21:56 | 28.02052 | -16.64140 | 1224 ft | 145 kts | 66° |
| 2026-05-06 21:57 | 28.02417 | -16.63095 | 1043 ft | 142 kts | 67° |
| 2026-05-06 21:57 | 28.02771 | -16.62071 | 833 ft | 137 kts | 69° |
| 2026-05-06 21:57 | 28.03119 | -16.61065 | 672 ft | 142 kts | 69° |
| 2026-05-06 21:57 | 28.03492 | -16.59994 | 469 ft | 145 kts | 68° |
| 2026-05-06 21:58 | 28.03848 | -16.58970 | 250 ft | 136 kts | 69° |
| 2026-05-06 21:58 | 28.04182 | -16.58015 | 203 ft | 115 kts | 69° |
| 2026-05-06 21:58 | 28.04389 | -16.57419 | 208 ft | 47 kts | 68° |
| 2026-05-06 21:58 | 28.04473 | -16.57182 | 209 ft | 28 kts | 68° |
| 2026-05-06 21:59 | 28.04570 | -16.56991 | 215 ft | 28 kts | 52° |
| 2026-05-06 21:59 | 28.04699 | -16.56822 | 216 ft | 27 kts | 49° |
| 2026-05-06 21:59 | 28.04772 | -16.56798 | 217 ft | 12 kts | 302° |
| 2026-05-06 21:59 | 28.04775 | -16.56845 | 216 ft | 0 kts | 259° |
| 2026-05-06 22:00 | 28.04774 | -16.56849 | 215 ft | 6 kts | 257° |
| 2026-05-06 22:00 | 28.04739 | -16.56961 | 221 ft | 19 kts | 248° |
| 2026-05-06 22:00 | 28.04692 | -16.57091 | 223 ft | 16 kts | 243° |
| 2026-05-06 22:00 | 28.04655 | -16.57178 | 225 ft | 16 kts | 247° |
| 2026-05-06 22:01 | 28.04619 | -16.57280 | 221 ft | 14 kts | 248° |
| 2026-05-06 22:01 | 28.04584 | -16.57382 | 222 ft | 14 kts | 250° |
| 2026-05-06 22:01 | 28.04551 | -16.57485 | 221 ft | 14 kts | 250° |
| 2026-05-06 22:01 | 28.04514 | -16.57587 | 219 ft | 14 kts | 248° |
| 2026-05-06 22:02 | 28.04479 | -16.57689 | 221 ft | 14 kts | 249° |
| 2026-05-06 22:02 | 28.04445 | -16.57792 | 220 ft | 14 kts | 250° |
| 2026-05-06 22:02 | 28.04422 | -16.57895 | 226 ft | 14 kts | 289° |
| 2026-05-06 22:02 | 28.04507 | -16.57937 | 227 ft | 14 kts | 315° |
| 2026-05-06 22:03 | 28.04500 | -16.58041 | 223 ft | 14 kts | 249° |
| 2026-05-06 22:03 | 28.04483 | -16.58133 | 226 ft | 10 kts | 306° |
| 2026-05-06 22:03 | 28.04524 | -16.58155 | 226 ft | 6 kts | 338° |
| 2026-05-06 22:03 | 28.04538 | -16.58161 | 223 ft | 0 kts | 340° |